createdAt,value
2023-04-09T00:01:28.596Z,21.14
2023-04-09T00:03:55.202Z,21.13
2023-04-09T00:06:21.597Z,21.12
2023-04-09T00:08:47.895Z,21.10
2023-04-09T00:11:14.217Z,21.10
2023-04-09T00:13:40.653Z,21.01
2023-04-09T00:16:07.451Z,20.97
2023-04-09T00:18:33.869Z,20.95
2023-04-09T00:21:00.559Z,20.96
2023-04-09T00:23:26.911Z,20.97
2023-04-09T00:25:53.248Z,20.98
2023-04-09T00:28:19.644Z,20.97
2023-04-09T00:30:45.957Z,20.96
2023-04-09T00:33:12.287Z,20.96
2023-04-09T00:35:38.630Z,20.95
2023-04-09T00:38:04.964Z,20.96
2023-04-09T00:40:31.406Z,20.92
2023-04-09T00:42:57.722Z,20.98
2023-04-09T00:45:24.199Z,20.98
2023-04-09T00:47:50.624Z,20.98
2023-04-09T00:50:17.006Z,20.97
2023-04-09T00:52:43.332Z,20.95
2023-04-09T00:55:09.819Z,20.95
2023-04-09T00:57:36.374Z,20.94
2023-04-09T01:00:04.270Z,20.94
2023-04-09T01:02:31.317Z,20.94
2023-04-09T01:04:57.806Z,20.93
2023-04-09T01:07:31.728Z,20.92
2023-04-09T01:10:01.302Z,20.94
2023-04-09T01:12:31.527Z,20.93
2023-04-09T01:15:03.529Z,20.93
2023-04-09T01:17:38.433Z,20.92
2023-04-09T01:20:12.087Z,20.91
2023-04-09T01:22:56.738Z,20.90
2023-04-09T01:25:29.356Z,20.90
2023-04-09T01:28:13.951Z,20.88
2023-04-09T01:30:40.790Z,20.90
2023-04-09T01:33:07.196Z,20.90
2023-04-09T01:35:33.557Z,20.90
2023-04-09T01:37:59.911Z,20.91
2023-04-09T01:40:26.245Z,20.91
2023-04-09T01:42:52.562Z,20.93
2023-04-09T01:45:18.873Z,20.90
2023-04-09T01:47:45.266Z,20.90
2023-04-09T01:50:11.599Z,20.88
2023-04-09T01:52:37.926Z,20.87
2023-04-09T01:55:04.312Z,20.85
2023-04-09T01:57:30.766Z,20.86
2023-04-09T01:59:57.117Z,20.83
2023-04-09T02:02:29.130Z,20.82
2023-04-09T02:04:55.973Z,20.80
2023-04-09T02:07:27.360Z,20.78
2023-04-09T02:09:53.690Z,20.76
2023-04-09T02:12:20.358Z,20.77
2023-04-09T02:14:46.931Z,20.75
2023-04-09T02:17:13.244Z,20.75
2023-04-09T02:19:39.648Z,20.75
2023-04-09T02:22:05.980Z,20.75
2023-04-09T02:24:32.282Z,20.75
2023-04-09T02:26:58.591Z,20.75
2023-04-09T02:29:24.915Z,20.75
2023-04-09T02:31:53.126Z,20.74
2023-04-09T02:34:19.858Z,20.73
2023-04-09T02:36:46.156Z,20.75
2023-04-09T02:39:12.458Z,20.73
2023-04-09T02:41:38.773Z,20.75
2023-04-09T02:44:05.128Z,20.73
2023-04-09T02:46:31.566Z,20.74
2023-04-09T02:48:57.899Z,20.73
2023-04-09T02:51:24.221Z,20.74
2023-04-09T02:53:50.567Z,20.71
2023-04-09T02:56:16.894Z,20.70
2023-04-09T02:58:43.216Z,20.69
2023-04-09T03:01:09.585Z,20.67
2023-04-09T03:03:37.388Z,20.66
2023-04-09T03:06:03.823Z,20.63
2023-04-09T03:08:30.159Z,20.62
2023-04-09T03:10:56.736Z,20.62
2023-04-09T03:13:23.062Z,20.61
2023-04-09T03:15:53.105Z,20.61
2023-04-09T03:18:19.472Z,20.59
2023-04-09T03:20:46.367Z,20.58
2023-04-09T03:23:12.683Z,20.58
2023-04-09T03:25:39.046Z,20.57
2023-04-09T03:28:05.619Z,20.56
2023-04-09T03:30:31.936Z,20.55
2023-04-09T03:32:59.447Z,20.54
2023-04-09T03:35:26.138Z,20.54
2023-04-09T03:37:52.449Z,20.53
2023-04-09T03:40:18.770Z,20.53
2023-04-09T03:42:45.206Z,20.53
2023-04-09T03:45:11.771Z,20.53
2023-04-09T03:47:38.118Z,20.49
2023-04-09T03:50:04.522Z,20.53
2023-04-09T03:52:31.050Z,20.52
2023-04-09T03:54:57.361Z,20.50
2023-04-09T03:57:23.676Z,20.49
2023-04-09T03:59:50.026Z,20.47
2023-04-09T04:02:16.420Z,20.47
2023-04-09T04:04:42.845Z,20.43
2023-04-09T04:07:09.199Z,20.49
2023-04-09T04:09:35.793Z,20.49
2023-04-09T04:12:02.343Z,20.53
2023-04-09T04:14:28.773Z,20.54
2023-04-09T04:16:55.991Z,20.58
2023-04-09T04:19:22.306Z,20.59
2023-04-09T04:21:48.639Z,20.63
2023-04-09T04:24:15.189Z,20.66
2023-04-09T04:26:41.524Z,20.68
2023-04-09T04:29:07.873Z,20.69
2023-04-09T04:31:34.245Z,20.69
2023-04-09T04:34:00.624Z,20.70
2023-04-09T04:36:26.972Z,20.71
2023-04-09T04:38:53.561Z,20.70
2023-04-09T04:41:20.785Z,20.70
2023-04-09T04:43:47.145Z,20.70
2023-04-09T04:46:13.496Z,20.70
2023-04-09T04:48:39.869Z,20.68
2023-04-09T04:51:06.186Z,20.65
2023-04-09T04:53:32.489Z,20.66
2023-04-09T04:55:58.823Z,20.61
2023-04-09T04:58:25.137Z,20.60
2023-04-09T05:00:51.473Z,20.58
2023-04-09T05:03:17.940Z,20.60
2023-04-09T05:05:45.340Z,20.60
2023-04-09T05:08:11.648Z,20.61
2023-04-09T05:10:40.286Z,20.68
2023-04-09T05:13:06.600Z,20.75
2023-04-09T05:15:32.906Z,20.80
2023-04-09T05:17:59.574Z,20.83
2023-04-09T05:20:27.166Z,20.85
2023-04-09T05:22:53.493Z,20.86
2023-04-09T05:25:19.820Z,20.86
2023-04-09T05:27:46.308Z,20.89
2023-04-09T05:30:13.362Z,20.87
2023-04-09T05:32:39.715Z,20.92
2023-04-09T05:35:06.209Z,20.91
2023-04-09T05:37:32.955Z,20.96
2023-04-09T05:39:59.281Z,20.95
2023-04-09T05:42:25.612Z,20.97
2023-04-09T05:44:51.938Z,20.96
2023-04-09T05:47:18.272Z,20.95
2023-04-09T05:49:44.620Z,20.91
2023-04-09T05:52:10.951Z,20.93
2023-04-09T05:54:37.282Z,20.92
2023-04-09T05:57:03.633Z,20.92
2023-04-09T05:59:29.971Z,20.90
2023-04-09T06:01:56.400Z,20.89
2023-04-09T06:04:22.945Z,20.86
2023-04-09T06:06:49.446Z,20.87
2023-04-09T06:09:15.781Z,20.85
2023-04-09T06:11:42.162Z,20.85
2023-04-09T06:14:08.485Z,20.88
2023-04-09T06:16:34.886Z,20.94
2023-04-09T06:19:01.197Z,21.01
2023-04-09T06:21:27.513Z,21.04
2023-04-09T06:23:54.279Z,21.08
2023-04-09T06:26:21.461Z,21.09
2023-04-09T06:28:47.865Z,21.09
2023-04-09T06:31:14.222Z,21.09
2023-04-09T06:33:40.587Z,21.10
2023-04-09T06:36:07.127Z,21.09
2023-04-09T06:38:33.490Z,21.05
2023-04-09T06:40:59.797Z,21.05
2023-04-09T06:43:26.108Z,21.07
2023-04-09T06:45:52.472Z,21.13
2023-04-09T06:48:18.832Z,21.17
2023-04-09T06:50:45.319Z,21.24
2023-04-09T06:53:11.669Z,21.29
2023-04-09T06:55:37.988Z,21.32
2023-04-09T06:58:04.359Z,21.40
2023-04-09T07:00:30.765Z,21.49
2023-04-09T07:02:57.470Z,21.53
2023-04-09T07:05:24.469Z,21.59
2023-04-09T07:07:50.930Z,21.72
2023-04-09T07:10:17.260Z,21.75
2023-04-09T07:12:43.615Z,21.81
2023-04-09T07:15:09.989Z,21.89
2023-04-09T07:17:36.580Z,21.95
2023-04-09T07:20:03.950Z,22.01
2023-04-09T07:22:30.729Z,22.09
2023-04-09T07:24:57.232Z,22.15
2023-04-09T07:27:23.918Z,22.18
2023-04-09T07:29:50.264Z,22.25
2023-04-09T07:32:16.723Z,22.33
2023-04-09T07:34:43.360Z,22.38
2023-04-09T07:37:09.803Z,22.42
2023-04-09T07:39:36.308Z,22.50
2023-04-09T07:42:02.884Z,22.52
2023-04-09T07:44:29.218Z,22.54
2023-04-09T07:46:55.605Z,22.55
2023-04-09T07:49:22.112Z,22.60
2023-04-09T07:51:48.414Z,22.60
2023-04-09T07:54:14.754Z,22.65
2023-04-09T07:56:41.150Z,22.74
2023-04-09T07:59:07.530Z,22.68
2023-04-09T08:01:34.152Z,22.78
2023-04-09T08:04:00.659Z,22.78
2023-04-09T08:06:27.561Z,22.85
2023-04-09T08:08:54.149Z,22.85
2023-04-09T08:11:25.173Z,22.86
2023-04-09T08:13:52.085Z,22.89
2023-04-09T08:16:18.606Z,22.86
2023-04-09T08:18:44.987Z,22.82
2023-04-09T08:21:11.412Z,22.17
2023-04-09T08:23:37.790Z,20.80
2023-04-09T08:26:04.109Z,20.53
2023-04-09T08:28:30.426Z,20.26
2023-04-09T08:30:56.739Z,19.96
2023-04-09T08:33:23.100Z,20.42
2023-04-09T08:35:49.402Z,20.25
2023-04-09T08:38:16.304Z,21.06
2023-04-09T08:40:42.619Z,21.75
2023-04-09T08:43:09.002Z,22.17
2023-04-09T08:45:35.380Z,22.36
2023-04-09T08:48:03.659Z,22.43
2023-04-09T08:50:31.059Z,22.50
2023-04-09T08:52:57.389Z,22.58
2023-04-09T08:55:23.725Z,22.65
2023-04-09T08:57:50.232Z,22.68
2023-04-09T09:00:16.561Z,22.76
2023-04-09T09:03:02.765Z,22.80
2023-04-09T09:05:35.237Z,22.86
2023-04-09T09:08:01.655Z,22.89
2023-04-09T09:10:43.891Z,22.90
2023-04-09T09:13:36.568Z,22.92
2023-04-09T09:16:12.475Z,22.92
2023-04-09T09:18:39.360Z,23.13
2023-04-09T09:21:12.480Z,23.14
2023-04-09T09:23:38.823Z,23.18
2023-04-09T09:26:12.325Z,23.23
2023-04-09T09:28:38.655Z,23.25
2023-04-09T09:31:08.458Z,23.29
2023-04-09T09:33:34.889Z,23.32
2023-04-09T09:36:03.837Z,23.34
2023-04-09T09:38:30.409Z,23.36
2023-04-09T09:40:57.111Z,23.36
2023-04-09T09:43:23.878Z,23.38
2023-04-09T09:45:50.324Z,23.34
2023-04-09T09:48:16.707Z,23.28
2023-04-09T09:50:43.136Z,23.15
2023-04-09T09:53:10.445Z,23.04
2023-04-09T09:55:40.535Z,22.97
2023-04-09T09:58:11.976Z,22.89
2023-04-09T10:00:38.357Z,22.90
2023-04-09T10:03:11.622Z,22.87
2023-04-09T10:05:39.089Z,22.87
2023-04-09T10:08:05.445Z,22.87
2023-04-09T10:10:32.371Z,22.85
2023-04-09T10:12:58.887Z,22.80
2023-04-09T10:15:25.807Z,22.81
2023-04-09T10:17:52.175Z,22.75
2023-04-09T10:20:27.089Z,22.77
2023-04-09T10:22:53.630Z,22.74
2023-04-09T10:25:20.654Z,22.72
2023-04-09T10:27:49.126Z,22.69
2023-04-09T10:30:31.300Z,22.66
2023-04-09T10:33:07.837Z,22.62
2023-04-09T10:35:34.174Z,22.58
2023-04-09T10:38:00.515Z,22.54
2023-04-09T10:40:27.944Z,22.55
2023-04-09T10:42:54.799Z,22.53
2023-04-09T10:45:22.484Z,22.48
2023-04-09T10:47:52.134Z,22.43
2023-04-09T10:50:18.388Z,22.45
2023-04-09T10:52:45.013Z,22.45
2023-04-09T10:55:33.809Z,22.44
2023-04-09T10:58:00.161Z,22.42
2023-04-09T11:00:26.534Z,22.41
2023-04-09T11:03:11.583Z,22.44
2023-04-09T11:05:40.995Z,22.44
2023-04-09T11:08:10.894Z,22.40
2023-04-09T11:10:41.154Z,22.37
2023-04-09T11:13:08.135Z,22.38
2023-04-09T11:15:34.903Z,22.35
2023-04-09T11:18:02.197Z,22.35
2023-04-09T11:20:28.630Z,22.31
2023-04-09T11:22:55.192Z,22.34
2023-04-09T11:25:27.111Z,22.34
2023-04-09T11:27:53.424Z,22.32
2023-04-09T11:30:19.822Z,22.30
2023-04-09T11:32:46.176Z,22.28
2023-04-09T11:35:13.365Z,22.28
2023-04-09T11:37:39.800Z,22.25
2023-04-09T11:40:06.373Z,22.25
2023-04-09T11:42:32.743Z,22.24
2023-04-09T11:44:59.068Z,22.21
2023-04-09T11:47:25.560Z,22.19
2023-04-09T11:49:51.918Z,22.18
2023-04-09T11:52:18.243Z,22.18
2023-04-09T11:54:50.723Z,22.17
2023-04-09T11:57:17.040Z,22.13
2023-04-09T11:59:43.444Z,22.12
2023-04-09T12:02:09.858Z,22.13
2023-04-09T12:04:36.426Z,22.11
2023-04-09T12:07:02.875Z,22.11
2023-04-09T12:09:29.246Z,22.11
2023-04-09T12:11:57.368Z,22.10
2023-04-09T12:14:23.765Z,22.09
2023-04-09T12:16:53.160Z,22.08
2023-04-09T12:19:20.455Z,22.06
2023-04-09T12:21:49.776Z,22.05
2023-04-09T12:24:17.028Z,22.04
2023-04-09T12:26:43.535Z,22.01
2023-04-09T12:29:09.865Z,22.01
2023-04-09T12:31:36.710Z,21.99
2023-04-09T12:34:03.117Z,21.99
2023-04-09T12:36:29.826Z,22.01
2023-04-09T12:38:56.307Z,22.01
2023-04-09T12:41:22.616Z,22.01
2023-04-09T12:43:49.268Z,22.02
2023-04-09T12:46:15.782Z,22.01
2023-04-09T12:48:42.133Z,22.02
2023-04-09T12:51:08.913Z,22.00
2023-04-09T12:53:35.421Z,22.00
2023-04-09T12:56:01.758Z,21.99
2023-04-09T12:58:28.416Z,21.99
2023-04-09T13:00:56.764Z,22.02
2023-04-09T13:03:23.705Z,22.05
2023-04-09T13:05:50.339Z,22.07
2023-04-09T13:08:17.156Z,22.09
2023-04-09T13:10:43.476Z,22.11
2023-04-09T13:13:12.209Z,22.09
2023-04-09T13:15:38.980Z,22.09
2023-04-09T13:18:05.352Z,22.06
2023-04-09T13:20:31.702Z,22.04
2023-04-09T13:22:58.014Z,22.01
2023-04-09T13:25:24.353Z,22.00
2023-04-09T13:27:50.713Z,21.98
2023-04-09T13:30:17.064Z,21.98
2023-04-09T13:32:43.715Z,21.95
2023-04-09T13:35:10.839Z,21.95
2023-04-09T13:37:37.165Z,21.95
2023-04-09T13:40:04.056Z,21.93
2023-04-09T13:42:31.381Z,21.92
2023-04-09T13:44:58.646Z,21.90
2023-04-09T13:47:24.989Z,21.88
2023-04-09T13:49:54.194Z,21.87
2023-04-09T13:52:20.536Z,21.85
2023-04-09T13:54:46.881Z,21.85
2023-04-09T13:57:13.187Z,21.85
2023-04-09T13:59:41.611Z,21.84
2023-04-09T14:02:08.850Z,21.82
2023-04-09T14:04:35.284Z,21.80
2023-04-09T14:07:01.678Z,21.77
2023-04-09T14:09:28.025Z,21.75
2023-04-09T14:11:55.100Z,21.73
2023-04-09T14:14:21.436Z,21.73
2023-04-09T14:16:48.316Z,21.73
2023-04-09T14:19:14.699Z,21.73
2023-04-09T14:21:41.139Z,21.68
2023-04-09T14:24:07.740Z,21.71
2023-04-09T14:26:34.077Z,21.69
2023-04-09T14:29:00.555Z,21.68
2023-04-09T14:31:26.924Z,21.75
2023-04-09T14:33:53.417Z,21.93
2023-04-09T14:36:19.810Z,22.11
2023-04-09T14:38:46.192Z,22.19
2023-04-09T14:41:12.569Z,22.27
2023-04-09T14:43:39.607Z,22.32
2023-04-09T14:46:07.057Z,22.34
2023-04-09T14:48:34.159Z,22.37
2023-04-09T14:51:00.503Z,22.36
2023-04-09T14:53:26.832Z,22.38
2023-04-09T14:55:53.152Z,22.41
2023-04-09T14:58:19.499Z,22.43
2023-04-09T15:00:45.881Z,22.44
2023-04-09T15:03:12.553Z,22.43
2023-04-09T15:05:39.198Z,22.45
2023-04-09T15:08:05.828Z,22.47
2023-04-09T15:10:32.154Z,22.46
2023-04-09T15:12:58.467Z,22.45
2023-04-09T15:15:24.790Z,22.44
2023-04-09T15:17:51.384Z,22.47
2023-04-09T15:20:18.380Z,22.46
2023-04-09T15:22:44.699Z,22.40
2023-04-09T15:25:13.739Z,22.45
2023-04-09T15:27:40.827Z,22.42
2023-04-09T15:30:07.544Z,22.39
2023-04-09T15:32:33.873Z,22.36
2023-04-09T15:35:00.752Z,22.33
2023-04-09T15:37:27.118Z,22.37
2023-04-09T15:39:53.430Z,22.49
2023-04-09T15:42:22.634Z,22.54
2023-04-09T15:44:49.713Z,22.62
2023-04-09T15:47:16.205Z,22.65
2023-04-09T15:49:42.697Z,22.71
2023-04-09T15:52:09.044Z,22.74
2023-04-09T15:54:35.612Z,22.74
2023-04-09T15:57:02.104Z,22.72
2023-04-09T15:59:28.443Z,22.70
2023-04-09T16:01:54.821Z,22.71
2023-04-09T16:04:21.260Z,22.71
2023-04-09T16:06:48.211Z,22.71
2023-04-09T16:09:14.552Z,22.75
2023-04-09T16:11:41.018Z,22.71
2023-04-09T16:14:08.976Z,22.74
2023-04-09T16:16:35.923Z,22.77
2023-04-09T16:19:02.243Z,22.73
2023-04-09T16:21:29.058Z,22.73
2023-04-09T16:23:55.937Z,22.77
2023-04-09T16:26:22.251Z,22.77
2023-04-09T16:28:48.632Z,22.79
2023-04-09T16:31:15.363Z,22.82
2023-04-09T16:33:41.803Z,22.79
2023-04-09T16:36:08.163Z,22.80
2023-04-09T16:38:34.531Z,22.75
2023-04-09T16:41:00.963Z,22.79
2023-04-09T16:43:27.313Z,22.75
2023-04-09T16:45:53.670Z,22.77
2023-04-09T16:48:20.096Z,22.80
2023-04-09T16:50:46.436Z,22.89
2023-04-09T16:53:13.071Z,22.99
2023-04-09T16:55:39.483Z,23.07
2023-04-09T16:58:05.817Z,23.11
2023-04-09T17:00:32.439Z,23.13
2023-04-09T17:02:58.938Z,23.14
2023-04-09T17:05:25.415Z,23.24
2023-04-09T17:07:53.493Z,23.19
2023-04-09T17:10:22.267Z,23.25
2023-04-09T17:12:48.631Z,23.25
2023-04-09T17:15:15.014Z,23.24
2023-04-09T17:17:41.406Z,23.19
2023-04-09T17:20:07.909Z,23.21
2023-04-09T17:22:35.099Z,23.16
2023-04-09T17:25:01.871Z,23.14
2023-04-09T17:27:28.586Z,23.08
2023-04-09T17:29:54.926Z,23.14
2023-04-09T17:32:21.275Z,23.18
2023-04-09T17:34:50.739Z,23.12
2023-04-09T17:37:17.055Z,23.13
2023-04-09T17:39:43.371Z,23.09
2023-04-09T17:42:11.789Z,23.07
2023-04-09T17:44:38.508Z,23.01
2023-04-09T17:47:05.650Z,23.01
2023-04-09T17:49:32.240Z,22.99
2023-04-09T17:51:58.874Z,22.95
2023-04-09T17:54:25.809Z,22.96
2023-04-09T17:56:52.327Z,22.91
2023-04-09T17:59:18.715Z,22.92
2023-04-09T18:01:45.096Z,22.99
2023-04-09T18:04:11.856Z,23.07
2023-04-09T18:06:38.411Z,23.04
2023-04-09T18:09:04.761Z,23.02
2023-04-09T18:11:31.188Z,22.99
2023-04-09T18:13:57.567Z,22.95
2023-04-09T18:16:23.916Z,22.99
2023-04-09T18:18:50.253Z,22.95
2023-04-09T18:21:17.098Z,22.89
2023-04-09T18:23:43.462Z,22.84
2023-04-09T18:26:09.834Z,22.88
2023-04-09T18:28:36.299Z,22.84
2023-04-09T18:31:02.679Z,22.83
2023-04-09T18:33:29.030Z,22.83
2023-04-09T18:35:55.437Z,22.81
2023-04-09T18:38:21.818Z,22.81
2023-04-09T18:40:48.151Z,22.79
2023-04-09T18:43:14.477Z,22.78
2023-04-09T18:45:40.920Z,22.74
2023-04-09T18:48:08.655Z,22.74
2023-04-09T18:50:35.125Z,22.74
2023-04-09T18:53:03.375Z,22.74
2023-04-09T18:55:29.849Z,22.73
2023-04-09T18:57:57.341Z,22.71
2023-04-09T19:00:23.683Z,22.69
2023-04-09T19:02:50.116Z,22.70
2023-04-09T19:05:17.484Z,22.68
2023-04-09T19:07:43.813Z,22.70
2023-04-09T19:10:10.313Z,22.74
2023-04-09T19:12:37.222Z,22.73
2023-04-09T19:15:04.732Z,22.72
2023-04-09T19:17:32.030Z,22.72
2023-04-09T19:19:58.433Z,22.68
2023-04-09T19:22:24.788Z,22.69
2023-04-09T19:24:51.165Z,22.68
2023-04-09T19:27:18.583Z,22.68
2023-04-09T19:29:46.525Z,22.69
2023-04-09T19:32:13.349Z,22.61
2023-04-09T19:34:39.778Z,22.66
2023-04-09T19:37:06.218Z,22.69
2023-04-09T19:39:32.594Z,22.66
2023-04-09T19:41:58.924Z,22.65
2023-04-09T19:44:25.435Z,22.62
2023-04-09T19:46:52.006Z,22.61
2023-04-09T19:49:18.349Z,22.62
2023-04-09T19:51:44.833Z,22.58
2023-04-09T19:54:11.201Z,22.54
2023-04-09T19:56:38.258Z,22.44
2023-04-09T19:59:04.689Z,22.41
2023-04-09T20:01:31.237Z,22.44
2023-04-09T20:03:57.819Z,22.44
2023-04-09T20:06:24.330Z,22.47
2023-04-09T20:08:51.097Z,22.47
2023-04-09T20:11:17.777Z,22.47
2023-04-09T20:13:44.116Z,22.46
2023-04-09T20:16:10.459Z,22.46
2023-04-09T20:18:36.901Z,22.44
2023-04-09T20:21:03.259Z,22.49
2023-04-09T20:23:30.235Z,22.64
2023-04-09T20:25:56.851Z,22.84
2023-04-09T20:28:23.208Z,22.99
2023-04-09T20:30:49.619Z,23.06
2023-04-09T20:33:16.078Z,23.13
2023-04-09T20:35:42.485Z,23.30
2023-04-09T20:38:08.813Z,23.54
2023-04-09T20:40:35.490Z,23.74
2023-04-09T20:43:01.872Z,23.92
2023-04-09T20:45:28.211Z,24.06
2023-04-09T20:47:54.837Z,24.16
2023-04-09T20:50:21.683Z,24.14
2023-04-09T20:52:49.518Z,24.17
2023-04-09T20:55:15.841Z,24.18
2023-04-09T20:57:42.342Z,24.21
2023-04-09T21:00:08.897Z,24.22
2023-04-09T21:02:35.374Z,24.25
2023-04-09T21:05:15.105Z,24.26
2023-04-09T21:07:47.991Z,24.31
2023-04-09T21:10:14.310Z,24.33
2023-04-09T21:12:40.667Z,24.37
2023-04-09T21:15:07.220Z,24.34
2023-04-09T21:17:33.541Z,24.35
2023-04-09T21:20:00.240Z,24.35
2023-04-09T21:22:26.787Z,24.37
2023-04-09T21:24:53.496Z,24.35
2023-04-09T21:27:20.199Z,24.34
2023-04-09T21:29:46.626Z,24.34
2023-04-09T21:32:12.965Z,24.35
2023-04-09T21:34:39.521Z,24.37
2023-04-09T21:37:06.230Z,24.36
2023-04-09T21:39:32.547Z,24.37
2023-04-09T21:41:58.885Z,24.38
2023-04-09T21:44:25.310Z,24.38
2023-04-09T21:46:52.175Z,24.34
2023-04-09T21:49:18.479Z,24.41
2023-04-09T21:51:45.204Z,24.38
2023-04-09T21:54:11.509Z,24.40
2023-04-09T21:56:37.881Z,24.39
2023-04-09T21:59:04.235Z,24.35
2023-04-09T22:01:31.398Z,24.31
2023-04-09T22:03:58.138Z,24.33
2023-04-09T22:06:24.560Z,24.32
2023-04-09T22:08:56.199Z,24.30
2023-04-09T22:11:27.511Z,24.28
2023-04-09T22:13:54.992Z,24.27
2023-04-09T22:16:21.698Z,24.21
2023-04-09T22:18:48.205Z,24.15
2023-04-09T22:21:15.585Z,24.14
2023-04-09T22:23:41.918Z,24.12
2023-04-09T22:26:08.233Z,24.08
2023-04-09T22:28:34.755Z,24.06
2023-04-09T22:31:01.253Z,24.06
2023-04-09T22:33:27.623Z,24.03
2023-04-09T22:35:54.113Z,24.00
2023-04-09T22:38:20.944Z,24.01
2023-04-09T22:40:47.306Z,23.98
2023-04-09T22:43:13.757Z,24.00
2023-04-09T22:45:40.072Z,23.96
2023-04-09T22:48:07.592Z,23.94
2023-04-09T22:50:34.121Z,23.94
2023-04-09T22:53:00.964Z,23.92
2023-04-09T22:55:27.383Z,23.86
2023-04-09T22:57:54.804Z,23.76
2023-04-09T23:00:21.118Z,23.63
2023-04-09T23:02:47.637Z,23.61
2023-04-09T23:05:14.486Z,23.59
2023-04-09T23:07:42.656Z,23.51
2023-04-09T23:10:09.138Z,23.47
2023-04-09T23:12:35.814Z,23.44
2023-04-09T23:15:02.173Z,23.42
2023-04-09T23:17:28.590Z,23.41
2023-04-09T23:19:54.941Z,23.40
2023-04-09T23:22:21.278Z,23.39
2023-04-09T23:24:47.578Z,23.36
2023-04-09T23:27:14.073Z,23.36
2023-04-09T23:29:40.411Z,23.31
2023-04-09T23:32:07.016Z,23.28
2023-04-09T23:34:33.344Z,23.24
2023-04-09T23:36:59.895Z,23.30
2023-04-09T23:39:26.373Z,23.37
2023-04-09T23:41:52.741Z,23.87
2023-04-09T23:44:19.382Z,24.25
2023-04-09T23:46:45.749Z,24.56
2023-04-09T23:49:12.238Z,24.73
2023-04-09T23:51:38.566Z,24.88
2023-04-09T23:54:04.932Z,25.08
2023-04-09T23:56:31.288Z,25.15
2023-04-09T23:58:57.607Z,25.21
